Charles Darwin — GDLS — position and weather

sailwx.info

Track history (hours):
 
Tides and Currents Weather Stations Pressure Air Temp Water Temp Dewpoint Dewpoint Depression Visibility Wind Speed Wind Dir Waves Ship Positions

Oceanographic research ship Charles Darwin (UK)

Detailed information on ship capabilities available from University of Delaware's Ocean Information Center.

Last reported at 2014-Dec-21 16:34 UTC. Time now 2014-Dec-21 17:18 UTC.
Position N 51°17' E 001°48'.

Length 70 m; draft 5.7 m.

Type: Cargo ship. MMSI: 235011460.

Date/timePositionNaut miles runAvg speedWind from/ knotsBaromVisibWave heightAir tempDewpointWater temp
2014-Dec-21 16:34N 51°17' E 001°48'8 7.7
2014-Dec-21 15:33N 51°24' E 001°53'7 6.9
2014-Dec-21 14:33N 51°30' E 001°59'6 6.3
2014-Dec-21 13:33N 51°35' E 002°05'6 5.7
2014-Dec-21 12:33N 51°40' E 002°10'14 7.1
2014-Dec-21 10:33N 51°54' E 002°10'9 8.9
2014-Dec-21 09:33N 52°03' E 002°10'3110.2
2014-Dec-21 06:33N 52°34' E 002°10'17 8.6
2014-Dec-21 04:33N 52°48' E 001°53'9 8.8
2014-Dec-21 03:33N 52°53' E 001°42'8 7.8
2014-Dec-21 02:33N 52°58' E 001°33'7 7.4
2014-Dec-21 01:33N 53°01' E 001°21'7 7.4
2014-Dec-21 00:33N 53°01' E 001°09'38 7.7
2014-Dec-20 19:32N 53°28' E 000°23'8 8.6
2014-Dec-20 18:33N 53°32' E 000°10'9 9.4
2014-Dec-20 17:34N 53°36' W 000°04'9 8.8
2014-Dec-20 16:33N 53°43' W 000°14'4 4.1
2014-Dec-20 15:33N 53°44' W 000°21'0 0.1
2014-Dec-20 14:12N 53°44' W 000°21'0 0.0
2014-Dec-20 13:24N 53°44' W 000°21'0 0.0
2014-Dec-20 12:30N 53°44' W 000°21'0 0.0
2014-Dec-20 11:30N 53°44' W 000°21'0 0.0
2014-Dec-20 10:27N 53°44' W 000°21'0 0.0
2014-Dec-20 09:33N 53°44' W 000°21'0 0.0
2014-Dec-20 08:30N 53°44' W 000°21'0 0.0
2014-Dec-20 07:33N 53°44' W 000°21'0 0.0
2014-Dec-20 06:30N 53°44' W 000°21'0 0.0
2014-Dec-20 05:33N 53°44' W 000°21'0 0.0
2014-Dec-20 04:33N 53°44' W 000°21'0 0.0
2014-Dec-20 03:33N 53°44' W 000°21'0 0.0
2014-Dec-20 02:30N 53°44' W 000°21'0 0.0
2014-Dec-20 01:33N 53°44' W 000°21'0 0.0
2014-Dec-20 00:21N 53°44' W 000°21'0 0.0
2014-Dec-19 23:24N 53°44' W 000°21'0 0.0
2014-Dec-19 22:27N 53°44' W 000°21'0 0.0
2014-Dec-19 21:24N 53°44' W 000°21'0 0.0
2014-Dec-19 20:27N 53°44' W 000°21'0 0.0
2014-Dec-19 19:30N 53°44' W 000°21'0 0.0
2014-Dec-19 18:33N 53°44' W 000°21'0 0.0
2014-Dec-19 17:12N 53°44' W 000°21'0 0.0
2014-Dec-19 16:33N 53°44' W 000°21'0 0.0
2014-Dec-19 15:30N 53°44' W 000°21'0 0.0
2014-Dec-19 14:33N 53°44' W 000°21'0 0.0
2014-Dec-19 13:21N 53°44' W 000°21'0 0.0
2014-Dec-19 12:33N 53°44' W 000°21'0 0.0
2014-Dec-19 11:33N 53°44' W 000°21'0 0.0
2014-Dec-19 10:33N 53°44' W 000°21'0 0.0
2014-Dec-19 09:24N 53°44' W 000°21'0 0.0
2014-Dec-19 08:33N 53°44' W 000°21'0 0.0
2014-Dec-19 07:30N 53°44' W 000°21'0 0.0
2014-Dec-19 06:30N 53°44' W 000°21'0 0.0
2014-Dec-19 05:30N 53°44' W 000°21'0 0.0
2014-Dec-19 04:33N 53°44' W 000°21'0 0.0
2014-Dec-19 03:30N 53°44' W 000°21'0 0.0
2014-Dec-19 02:33N 53°44' W 000°21'0 0.0
2014-Dec-19 01:33N 53°44' W 000°21'0 0.0
2014-Dec-19 00:33N 53°44' W 000°21'0 0.0
2014-Dec-18 23:27N 53°44' W 000°21'0 0.0
2014-Dec-18 22:33N 53°44' W 000°21'0 0.0
2014-Dec-18 21:29N 53°44' W 000°21'0 0.0
2014-Dec-18 20:24N 53°44' W 000°21'0 0.0
2014-Dec-18 19:32N 53°44' W 000°21'0 0.0
2014-Dec-18 18:27N 53°44' W 000°21'0 0.0
2014-Dec-18 17:27N 53°44' W 000°21'0 0.0
2014-Dec-18 16:23N 53°44' W 000°21'0 0.0
2014-Dec-18 15:26N 53°44' W 000°21'0 0.0
2014-Dec-18 14:24N 53°44' W 000°21'0 0.0
2014-Dec-18 13:32N 53°44' W 000°21'0 0.0
2014-Dec-18 12:29N 53°44' W 000°21'0 0.0
2014-Dec-18 11:26N 53°44' W 000°21'0 0.0
2014-Dec-18 10:32N 53°44' W 000°21'0 0.0
2014-Dec-18 09:32N 53°44' W 000°21'0 0.0
2014-Dec-18 08:33N 53°44' W 000°21'0 0.0
2014-Dec-18 07:29N 53°44' W 000°21'0 0.0
2014-Dec-18 06:32N 53°44' W 000°21'0 0.0
2014-Dec-18 05:33N 53°44' W 000°21'0 0.0
2014-Dec-18 04:29N 53°44' W 000°21'0 0.0
2014-Dec-18 03:23N 53°44' W 000°21'0 0.0
2014-Dec-18 02:32N 53°44' W 000°21'0 0.0
2014-Dec-18 01:26N 53°44' W 000°21'0 0.0
2014-Dec-18 00:20N 53°44' W 000°21'0 0.0
2014-Dec-17 23:33N 53°44' W 000°21'0 0.0
2014-Dec-17 22:33N 53°44' W 000°21'0 0.0
2014-Dec-17 21:29N 53°44' W 000°21'0 0.0
2014-Dec-17 20:32N 53°44' W 000°21'0 0.0
2014-Dec-17 19:32N 53°44' W 000°21'0 0.0
2014-Dec-17 18:29N 53°44' W 000°21'0 0.0
2014-Dec-17 17:29N 53°44' W 000°21'0 0.0
2014-Dec-17 16:32N 53°44' W 000°21'0 0.0
2014-Dec-17 15:29N 53°44' W 000°21'0 0.0
2014-Dec-17 14:32N 53°44' W 000°21'0 0.0
2014-Dec-17 13:32N 53°44' W 000°21'0 0.0
2014-Dec-17 12:23N 53°44' W 000°21'0 0.0
2014-Dec-17 11:32N 53°44' W 000°21'0 0.0
2014-Dec-17 10:26N 53°44' W 000°21'0 0.0
2014-Dec-17 09:20N 53°44' W 000°21'0 0.0
2014-Dec-17 08:20N 53°44' W 000°21'0 0.0
2014-Dec-17 07:32N 53°44' W 000°21'0 0.0
2014-Dec-17 06:32N 53°44' W 000°21'0 0.0
2014-Dec-17 05:23N 53°44' W 000°21'0 0.0
2014-Dec-17 04:32N 53°44' W 000°21'0 0.0
2014-Dec-17 03:32N 53°44' W 000°21'0 0.0
2014-Dec-17 02:32N 53°44' W 000°21'0 0.0
2014-Dec-17 01:32N 53°44' W 000°21'0 0.0
2014-Dec-17 00:32N 53°44' W 000°21'0 0.0
2014-Dec-16 23:20N 53°44' W 000°21'0 0.0
2014-Dec-16 22:32N 53°44' W 000°21'0 0.0
2014-Dec-16 21:32N 53°44' W 000°21'0 0.0
2014-Dec-16 20:23N 53°44' W 000°21'0 0.0
2014-Dec-16 19:32N 53°44' W 000°21'0 0.0
2014-Dec-16 18:29N 53°44' W 000°21'0 0.0
2014-Dec-16 17:29N 53°44' W 000°21'0 0.0
2014-Dec-16 16:26N 53°44' W 000°21'0 0.0
2014-Dec-16 15:26N 53°44' W 000°21'0 0.0
2014-Dec-16 14:32N 53°44' W 000°21'0 0.0
2014-Dec-16 13:32N 53°44' W 000°21'0 0.0
2014-Dec-16 12:32N 53°44' W 000°21'0 0.0
2014-Dec-16 11:32N 53°44' W 000°21'0 0.0
2014-Dec-16 10:32N 53°44' W 000°21'0 0.0
2014-Dec-16 09:23N 53°44' W 000°21'0 0.0
2014-Dec-16 08:32N 53°44' W 000°21'0 0.0
2014-Dec-16 07:26N 53°44' W 000°21'0 0.0
2014-Dec-16 06:32N 53°44' W 000°21'0 0.0
2014-Dec-16 05:09N 53°44' W 000°21'0 0.0
2014-Dec-16 04:20N 53°44' W 000°21'0 0.0
2014-Dec-16 03:26N 53°44' W 000°21'0 0.0
2014-Dec-16 02:33N 53°44' W 000°21'0 0.0
2014-Dec-15 23:32N 53°44' W 000°21'0 0.0
2014-Dec-15 22:14N 53°44' W 000°21'0 0.0
2014-Dec-15 21:29N 53°44' W 000°21'0 0.0
2014-Dec-15 20:32N 53°44' W 000°21'0 0.0
2014-Dec-15 19:29N 53°44' W 000°21'0 0.0
2014-Dec-15 18:29N 53°44' W 000°21'0 0.0
2014-Dec-15 17:29N 53°44' W 000°21'0 0.0
2014-Dec-15 16:32N 53°44' W 000°21'0 0.0
2014-Dec-15 15:26N 53°44' W 000°21'0 0.0
2014-Dec-15 14:32N 53°44' W 000°21'0 0.0
2014-Dec-15 13:32N 53°44' W 000°21'0 0.0
2014-Dec-15 12:23N 53°44' W 000°21'0 0.0
2014-Dec-15 11:26N 53°44' W 000°21'0 0.0
2014-Dec-15 10:29N 53°44' W 000°21'0 0.0
2014-Dec-15 09:29N 53°44' W 000°21'0 0.0
2014-Dec-15 08:29N 53°44' W 000°21'0 0.0
2014-Dec-15 07:32N 53°44' W 000°21'0 0.0
2014-Dec-15 06:32N 53°44' W 000°21'0 0.0
2014-Dec-15 05:32N 53°44' W 000°21'0 0.0
2014-Dec-15 04:32N 53°44' W 000°21'0 0.0
2014-Dec-15 03:20N 53°44' W 000°21'0 0.0
2014-Dec-15 02:29N 53°44' W 000°21'0 0.0
2014-Dec-15 01:23N 53°44' W 000°21'0 0.0
2014-Dec-15 00:32N 53°44' W 000°21'0 0.0
2014-Dec-14 23:32N 53°44' W 000°21'0 0.0
2014-Dec-14 22:32N 53°44' W 000°21'0 0.0
2014-Dec-14 21:23N 53°44' W 000°21'0 0.0
2014-Dec-14 20:23N 53°44' W 000°21'0 0.0
2014-Dec-14 19:29N 53°44' W 000°21'0 0.0
2014-Dec-14 18:29N 53°44' W 000°21'0 0.0
2014-Dec-14 17:32N 53°44' W 000°21'0 0.0
2014-Dec-14 16:32N 53°44' W 000°21'0 0.0
2014-Dec-14 15:14N 53°44' W 000°21'0 0.0
2014-Dec-14 14:32N 53°44' W 000°21'0 0.0
2014-Dec-14 13:26N 53°44' W 000°21'0 0.0
2014-Dec-14 12:32N 53°44' W 000°21'0 0.0
2014-Dec-14 11:32N 53°44' W 000°21'0 0.0
2014-Dec-14 10:32N 53°44' W 000°21'0 0.0
2014-Dec-14 09:23N 53°44' W 000°21'0 0.0
2014-Dec-14 08:32N 53°44' W 000°21'0 0.0
2014-Dec-14 07:32N 53°44' W 000°21'0 0.0
2014-Dec-14 06:26N 53°44' W 000°21'0 0.0
2014-Dec-14 05:29N 53°44' W 000°21'0 0.0
2014-Dec-14 04:29N 53°44' W 000°21'0 0.0
2014-Dec-14 03:20N 53°44' W 000°21'0 0.0
2014-Dec-14 02:32N 53°44' W 000°21'0 0.0
2014-Dec-14 01:26N 53°44' W 000°21'0 0.0
2014-Dec-14 00:32N 53°44' W 000°21'0 0.0
2014-Dec-13 23:26N 53°44' W 000°21'0 0.0
2014-Dec-13 22:32N 53°44' W 000°21'0 0.0
2014-Dec-13 21:32N 53°44' W 000°21'0 0.0
2014-Dec-13 20:29N 53°44' W 000°21'0 0.0
2014-Dec-13 19:14N 53°44' W 000°21'0 0.0
2014-Dec-13 18:26N 53°44' W 000°21'0 0.0
2014-Dec-13 17:32N 53°44' W 000°21'0 0.0
2014-Dec-13 16:32N 53°44' W 000°21'0 0.0
2014-Dec-13 15:32N 53°44' W 000°21'0 0.0
2014-Dec-13 14:26N 53°44' W 000°21'0 0.0
2014-Dec-13 13:32N 53°44' W 000°21'0 0.0
2014-Dec-13 12:32N 53°44' W 000°21'0 0.0
2014-Dec-13 11:32N 53°44' W 000°21'0 0.0
2014-Dec-13 10:32N 53°44' W 000°21'0 0.0
2014-Dec-13 09:29N 53°44' W 000°21'0 0.0
2014-Dec-13 08:32N 53°44' W 000°21'0 0.0
2014-Dec-13 07:32N 53°44' W 000°21'0 0.0
2014-Dec-13 06:32N 53°44' W 000°21'0 0.0
2014-Dec-13 05:32N 53°44' W 000°21'0 0.0
2014-Dec-13 04:29N 53°44' W 000°21'0 0.0
2014-Dec-13 03:26N 53°44' W 000°21'0 0.0
2014-Dec-13 02:32N 53°44' W 000°21'0 0.0
2014-Dec-13 01:32N 53°44' W 000°21'0 0.0
2014-Dec-13 00:23N 53°44' W 000°21'0 0.0
2014-Dec-12 23:32N 53°44' W 000°21'0 0.0
2014-Dec-12 22:23N 53°44' W 000°21'0 0.0
2014-Dec-12 21:32N 53°44' W 000°21'0 0.0
2014-Dec-12 20:32N 53°44' W 000°21'0 0.0
2014-Dec-12 19:32N 53°44' W 000°21'0 0.0
2014-Dec-12 18:32N 53°44' W 000°21'0 0.0
2014-Dec-12 17:32N 53°44' W 000°21'0 0.0
2014-Dec-12 16:32N 53°44' W 000°21'0 0.0
2014-Dec-12 15:29N 53°44' W 000°21'0 0.0
2014-Dec-12 14:32N 53°44' W 000°21'0 0.0
2014-Dec-12 13:29N 53°44' W 000°21'0 0.0
2014-Dec-12 12:32N 53°44' W 000°21'0 0.0
2014-Dec-12 11:23N 53°44' W 000°21'0 0.0
2014-Dec-12 10:23N 53°44' W 000°21'0 0.0
2014-Dec-12 09:32N 53°44' W 000°21'0 0.0
2014-Dec-12 08:29N 53°44' W 000°21'0 0.0
2014-Dec-12 07:29N 53°44' W 000°21'0 0.0
2014-Dec-12 06:32N 53°44' W 000°21'0 0.0
2014-Dec-12 05:29N 53°44' W 000°21'0 0.0
2014-Dec-12 04:32N 53°44' W 000°21'0 0.0
2014-Dec-12 03:29N 53°44' W 000°21'0 0.0
2014-Dec-12 02:32N 53°44' W 000°21'0 0.0
2014-Dec-12 01:32N 53°44' W 000°21'0 0.0
2014-Dec-12 00:32N 53°44' W 000°21'0 0.0
2014-Dec-11 23:32N 53°44' W 000°21'0 0.0
2014-Dec-11 22:32N 53°44' W 000°21'0 0.0
2014-Dec-11 21:23N 53°44' W 000°21'0 0.0
2014-Dec-11 20:32N 53°44' W 000°21'0 0.0
2014-Dec-11 19:32N 53°44' W 000°21'0 0.0
2014-Dec-11 18:32N 53°44' W 000°21'0 0.0
2014-Dec-11 17:29N 53°44' W 000°21'  
Track history (hours):
 
Tides and Currents Weather Stations Pressure Air Temp Water Temp Dewpoint Dewpoint Depression Visibility Wind Speed Wind Dir Waves Ship Positions

Oceanographic research ship Charles Darwin (UK)

Detailed information on ship capabilities available from University of Delaware's Ocean Information Center.

Last reported at 2014-Dec-21 16:34 UTC. Time now 2014-Dec-21 17:18 UTC.
Position N 51°17' E 001°48'.

Length 70 m; draft 5.7 m.

Type: Cargo ship. MMSI: 235011460.

Date/timePositionNaut miles runAvg speedWind from/ knotsBaromVisibWave heightAir tempDewpointWater temp
2014-Dec-21 16:34N 51°17' E 001°48'8 7.7
2014-Dec-21 15:33N 51°24' E 001°53'7 6.9
2014-Dec-21 14:33N 51°30' E 001°59'6 6.3
2014-Dec-21 13:33N 51°35' E 002°05'6 5.7
2014-Dec-21 12:33N 51°40' E 002°10'14 7.1
2014-Dec-21 10:33N 51°54' E 002°10'9 8.9
2014-Dec-21 09:33N 52°03' E 002°10'3110.2
2014-Dec-21 06:33N 52°34' E 002°10'17 8.6
2014-Dec-21 04:33N 52°48' E 001°53'9 8.8
2014-Dec-21 03:33N 52°53' E 001°42'8 7.8
2014-Dec-21 02:33N 52°58' E 001°33'7 7.4
2014-Dec-21 01:33N 53°01' E 001°21'7 7.4
2014-Dec-21 00:33N 53°01' E 001°09'38 7.7
2014-Dec-20 19:32N 53°28' E 000°23'8 8.6
2014-Dec-20 18:33N 53°32' E 000°10'9 9.4
2014-Dec-20 17:34N 53°36' W 000°04'9 8.8
2014-Dec-20 16:33N 53°43' W 000°14'4 4.1
2014-Dec-20 15:33N 53°44' W 000°21'0 0.1
2014-Dec-20 14:12N 53°44' W 000°21'0 0.0
2014-Dec-20 13:24N 53°44' W 000°21'0 0.0
2014-Dec-20 12:30N 53°44' W 000°21'0 0.0
2014-Dec-20 11:30N 53°44' W 000°21'0 0.0
2014-Dec-20 10:27N 53°44' W 000°21'0 0.0
2014-Dec-20 09:33N 53°44' W 000°21'0 0.0
2014-Dec-20 08:30N 53°44' W 000°21'0 0.0
2014-Dec-20 07:33N 53°44' W 000°21'0 0.0
2014-Dec-20 06:30N 53°44' W 000°21'0 0.0
2014-Dec-20 05:33N 53°44' W 000°21'0 0.0
2014-Dec-20 04:33N 53°44' W 000°21'0 0.0
2014-Dec-20 03:33N 53°44' W 000°21'0 0.0
2014-Dec-20 02:30N 53°44' W 000°21'0 0.0
2014-Dec-20 01:33N 53°44' W 000°21'0 0.0
2014-Dec-20 00:21N 53°44' W 000°21'0 0.0
2014-Dec-19 23:24N 53°44' W 000°21'0 0.0
2014-Dec-19 22:27N 53°44' W 000°21'0 0.0
2014-Dec-19 21:24N 53°44' W 000°21'0 0.0
2014-Dec-19 20:27N 53°44' W 000°21'0 0.0
2014-Dec-19 19:30N 53°44' W 000°21'0 0.0
2014-Dec-19 18:33N 53°44' W 000°21'0 0.0
2014-Dec-19 17:12N 53°44' W 000°21'0 0.0
2014-Dec-19 16:33N 53°44' W 000°21'0 0.0
2014-Dec-19 15:30N 53°44' W 000°21'0 0.0
2014-Dec-19 14:33N 53°44' W 000°21'0 0.0
2014-Dec-19 13:21N 53°44' W 000°21'0 0.0
2014-Dec-19 12:33N 53°44' W 000°21'0 0.0
2014-Dec-19 11:33N 53°44' W 000°21'0 0.0
2014-Dec-19 10:33N 53°44' W 000°21'0 0.0
2014-Dec-19 09:24N 53°44' W 000°21'0 0.0
2014-Dec-19 08:33N 53°44' W 000°21'0 0.0
2014-Dec-19 07:30N 53°44' W 000°21'0 0.0
2014-Dec-19 06:30N 53°44' W 000°21'0 0.0
2014-Dec-19 05:30N 53°44' W 000°21'0 0.0
2014-Dec-19 04:33N 53°44' W 000°21'0 0.0
2014-Dec-19 03:30N 53°44' W 000°21'0 0.0
2014-Dec-19 02:33N 53°44' W 000°21'0 0.0
2014-Dec-19 01:33N 53°44' W 000°21'0 0.0
2014-Dec-19 00:33N 53°44' W 000°21'0 0.0
2014-Dec-18 23:27N 53°44' W 000°21'0 0.0
2014-Dec-18 22:33N 53°44' W 000°21'0 0.0
2014-Dec-18 21:29N 53°44' W 000°21'0 0.0
2014-Dec-18 20:24N 53°44' W 000°21'0 0.0
2014-Dec-18 19:32N 53°44' W 000°21'0 0.0
2014-Dec-18 18:27N 53°44' W 000°21'0 0.0
2014-Dec-18 17:27N 53°44' W 000°21'0 0.0
2014-Dec-18 16:23N 53°44' W 000°21'0 0.0
2014-Dec-18 15:26N 53°44' W 000°21'0 0.0
2014-Dec-18 14:24N 53°44' W 000°21'0 0.0
2014-Dec-18 13:32N 53°44' W 000°21'0 0.0
2014-Dec-18 12:29N 53°44' W 000°21'0 0.0
2014-Dec-18 11:26N 53°44' W 000°21'0 0.0
2014-Dec-18 10:32N 53°44' W 000°21'0 0.0
2014-Dec-18 09:32N 53°44' W 000°21'0 0.0
2014-Dec-18 08:33N 53°44' W 000°21'0 0.0
2014-Dec-18 07:29N 53°44' W 000°21'0 0.0
2014-Dec-18 06:32N 53°44' W 000°21'0 0.0
2014-Dec-18 05:33N 53°44' W 000°21'0 0.0
2014-Dec-18 04:29N 53°44' W 000°21'0 0.0
2014-Dec-18 03:23N 53°44' W 000°21'0 0.0
2014-Dec-18 02:32N 53°44' W 000°21'0 0.0
2014-Dec-18 01:26N 53°44' W 000°21'0 0.0
2014-Dec-18 00:20N 53°44' W 000°21'0 0.0
2014-Dec-17 23:33N 53°44' W 000°21'0 0.0
2014-Dec-17 22:33N 53°44' W 000°21'0 0.0
2014-Dec-17 21:29N 53°44' W 000°21'0 0.0
2014-Dec-17 20:32N 53°44' W 000°21'0 0.0
2014-Dec-17 19:32N 53°44' W 000°21'0 0.0
2014-Dec-17 18:29N 53°44' W 000°21'0 0.0
2014-Dec-17 17:29N 53°44' W 000°21'0 0.0
2014-Dec-17 16:32N 53°44' W 000°21'0 0.0
2014-Dec-17 15:29N 53°44' W 000°21'0 0.0
2014-Dec-17 14:32N 53°44' W 000°21'0 0.0
2014-Dec-17 13:32N 53°44' W 000°21'0 0.0
2014-Dec-17 12:23N 53°44' W 000°21'0 0.0
2014-Dec-17 11:32N 53°44' W 000°21'0 0.0
2014-Dec-17 10:26N 53°44' W 000°21'0 0.0
2014-Dec-17 09:20N 53°44' W 000°21'0 0.0
2014-Dec-17 08:20N 53°44' W 000°21'0 0.0
2014-Dec-17 07:32N 53°44' W 000°21'0 0.0
2014-Dec-17 06:32N 53°44' W 000°21'0 0.0
2014-Dec-17 05:23N 53°44' W 000°21'0 0.0
2014-Dec-17 04:32N 53°44' W 000°21'0 0.0
2014-Dec-17 03:32N 53°44' W 000°21'0 0.0
2014-Dec-17 02:32N 53°44' W 000°21'0 0.0
2014-Dec-17 01:32N 53°44' W 000°21'0 0.0
2014-Dec-17 00:32N 53°44' W 000°21'0 0.0
2014-Dec-16 23:20N 53°44' W 000°21'0 0.0
2014-Dec-16 22:32N 53°44' W 000°21'0 0.0
2014-Dec-16 21:32N 53°44' W 000°21'0 0.0
2014-Dec-16 20:23N 53°44' W 000°21'0 0.0
2014-Dec-16 19:32N 53°44' W 000°21'0 0.0
2014-Dec-16 18:29N 53°44' W 000°21'0 0.0
2014-Dec-16 17:29N 53°44' W 000°21'0 0.0
2014-Dec-16 16:26N 53°44' W 000°21'0 0.0
2014-Dec-16 15:26N 53°44' W 000°21'0 0.0
2014-Dec-16 14:32N 53°44' W 000°21'0 0.0
2014-Dec-16 13:32N 53°44' W 000°21'0 0.0
2014-Dec-16 12:32N 53°44' W 000°21'0 0.0
2014-Dec-16 11:32N 53°44' W 000°21'0 0.0
2014-Dec-16 10:32N 53°44' W 000°21'0 0.0
2014-Dec-16 09:23N 53°44' W 000°21'0 0.0
2014-Dec-16 08:32N 53°44' W 000°21'0 0.0
2014-Dec-16 07:26N 53°44' W 000°21'0 0.0
2014-Dec-16 06:32N 53°44' W 000°21'0 0.0
2014-Dec-16 05:09N 53°44' W 000°21'0 0.0
2014-Dec-16 04:20N 53°44' W 000°21'0 0.0
2014-Dec-16 03:26N 53°44' W 000°21'0 0.0
2014-Dec-16 02:33N 53°44' W 000°21'0 0.0
2014-Dec-15 23:32N 53°44' W 000°21'0 0.0
2014-Dec-15 22:14N 53°44' W 000°21'0 0.0
2014-Dec-15 21:29N 53°44' W 000°21'0 0.0
2014-Dec-15 20:32N 53°44' W 000°21'0 0.0
2014-Dec-15 19:29N 53°44' W 000°21'0 0.0
2014-Dec-15 18:29N 53°44' W 000°21'0 0.0
2014-Dec-15 17:29N 53°44' W 000°21'0 0.0
2014-Dec-15 16:32N 53°44' W 000°21'0 0.0
2014-Dec-15 15:26N 53°44' W 000°21'0 0.0
2014-Dec-15 14:32N 53°44' W 000°21'0 0.0
2014-Dec-15 13:32N 53°44' W 000°21'0 0.0
2014-Dec-15 12:23N 53°44' W 000°21'0 0.0
2014-Dec-15 11:26N 53°44' W 000°21'0 0.0
2014-Dec-15 10:29N 53°44' W 000°21'0 0.0
2014-Dec-15 09:29N 53°44' W 000°21'0 0.0
2014-Dec-15 08:29N 53°44' W 000°21'0 0.0
2014-Dec-15 07:32N 53°44' W 000°21'0 0.0
2014-Dec-15 06:32N 53°44' W 000°21'0 0.0
2014-Dec-15 05:32N 53°44' W 000°21'0 0.0
2014-Dec-15 04:32N 53°44' W 000°21'0 0.0
2014-Dec-15 03:20N 53°44' W 000°21'0 0.0
2014-Dec-15 02:29N 53°44' W 000°21'0 0.0
2014-Dec-15 01:23N 53°44' W 000°21'0 0.0
2014-Dec-15 00:32N 53°44' W 000°21'0 0.0
2014-Dec-14 23:32N 53°44' W 000°21'0 0.0
2014-Dec-14 22:32N 53°44' W 000°21'0 0.0
2014-Dec-14 21:23N 53°44' W 000°21'0 0.0
2014-Dec-14 20:23N 53°44' W 000°21'0 0.0
2014-Dec-14 19:29N 53°44' W 000°21'0 0.0
2014-Dec-14 18:29N 53°44' W 000°21'0 0.0
2014-Dec-14 17:32N 53°44' W 000°21'0 0.0
2014-Dec-14 16:32N 53°44' W 000°21'0 0.0
2014-Dec-14 15:14N 53°44' W 000°21'0 0.0
2014-Dec-14 14:32N 53°44' W 000°21'0 0.0
2014-Dec-14 13:26N 53°44' W 000°21'0 0.0
2014-Dec-14 12:32N 53°44' W 000°21'0 0.0
2014-Dec-14 11:32N 53°44' W 000°21'0 0.0
2014-Dec-14 10:32N 53°44' W 000°21'0 0.0
2014-Dec-14 09:23N 53°44' W 000°21'0 0.0
2014-Dec-14 08:32N 53°44' W 000°21'0 0.0
2014-Dec-14 07:32N 53°44' W 000°21'0 0.0
2014-Dec-14 06:26N 53°44' W 000°21'0 0.0
2014-Dec-14 05:29N 53°44' W 000°21'0 0.0
2014-Dec-14 04:29N 53°44' W 000°21'0 0.0
2014-Dec-14 03:20N 53°44' W 000°21'0 0.0
2014-Dec-14 02:32N 53°44' W 000°21'0 0.0
2014-Dec-14 01:26N 53°44' W 000°21'0 0.0
2014-Dec-14 00:32N 53°44' W 000°21'0 0.0
2014-Dec-13 23:26N 53°44' W 000°21'0 0.0
2014-Dec-13 22:32N 53°44' W 000°21'0 0.0
2014-Dec-13 21:32N 53°44' W 000°21'0 0.0
2014-Dec-13 20:29N 53°44' W 000°21'0 0.0
2014-Dec-13 19:14N 53°44' W 000°21'0 0.0
2014-Dec-13 18:26N 53°44' W 000°21'0 0.0
2014-Dec-13 17:32N 53°44' W 000°21'0 0.0
2014-Dec-13 16:32N 53°44' W 000°21'0 0.0
2014-Dec-13 15:32N 53°44' W 000°21'0 0.0
2014-Dec-13 14:26N 53°44' W 000°21'0 0.0
2014-Dec-13 13:32N 53°44' W 000°21'0 0.0
2014-Dec-13 12:32N 53°44' W 000°21'0 0.0
2014-Dec-13 11:32N 53°44' W 000°21'0 0.0
2014-Dec-13 10:32N 53°44' W 000°21'0 0.0
2014-Dec-13 09:29N 53°44' W 000°21'0 0.0
2014-Dec-13 08:32N 53°44' W 000°21'0 0.0
2014-Dec-13 07:32N 53°44' W 000°21'0 0.0
2014-Dec-13 06:32N 53°44' W 000°21'0 0.0
2014-Dec-13 05:32N 53°44' W 000°21'0 0.0
2014-Dec-13 04:29N 53°44' W 000°21'0 0.0
2014-Dec-13 03:26N 53°44' W 000°21'0 0.0
2014-Dec-13 02:32N 53°44' W 000°21'0 0.0
2014-Dec-13 01:32N 53°44' W 000°21'0 0.0
2014-Dec-13 00:23N 53°44' W 000°21'0 0.0
2014-Dec-12 23:32N 53°44' W 000°21'0 0.0
2014-Dec-12 22:23N 53°44' W 000°21'0 0.0
2014-Dec-12 21:32N 53°44' W 000°21'0 0.0
2014-Dec-12 20:32N 53°44' W 000°21'0 0.0
2014-Dec-12 19:32N 53°44' W 000°21'0 0.0
2014-Dec-12 18:32N 53°44' W 000°21'0 0.0
2014-Dec-12 17:32N 53°44' W 000°21'0 0.0
2014-Dec-12 16:32N 53°44' W 000°21'0 0.0
2014-Dec-12 15:29N 53°44' W 000°21'0 0.0
2014-Dec-12 14:32N 53°44' W 000°21'0 0.0
2014-Dec-12 13:29N 53°44' W 000°21'0 0.0
2014-Dec-12 12:32N 53°44' W 000°21'0 0.0
2014-Dec-12 11:23N 53°44' W 000°21'0 0.0
2014-Dec-12 10:23N 53°44' W 000°21'0 0.0
2014-Dec-12 09:32N 53°44' W 000°21'0 0.0
2014-Dec-12 08:29N 53°44' W 000°21'0 0.0
2014-Dec-12 07:29N 53°44' W 000°21'0 0.0
2014-Dec-12 06:32N 53°44' W 000°21'0 0.0
2014-Dec-12 05:29N 53°44' W 000°21'0 0.0
2014-Dec-12 04:32N 53°44' W 000°21'0 0.0
2014-Dec-12 03:29N 53°44' W 000°21'0 0.0
2014-Dec-12 02:32N 53°44' W 000°21'0 0.0
2014-Dec-12 01:32N 53°44' W 000°21'0 0.0
2014-Dec-12 00:32N 53°44' W 000°21'0 0.0
2014-Dec-11 23:32N 53°44' W 000°21'0 0.0
2014-Dec-11 22:32N 53°44' W 000°21'0 0.0
2014-Dec-11 21:23N 53°44' W 000°21'0 0.0
2014-Dec-11 20:32N 53°44' W 000°21'0 0.0
2014-Dec-11 19:32N 53°44' W 000°21'0 0.0
2014-Dec-11 18:32N 53°44' W 000°21'0 0.0
2014-Dec-11 17:29N 53°44' W 000°21'  

Dump ship's entire track history